createdAt,value
2018-02-17T00:01:18.972Z,14.07
2018-02-17T00:03:45.623Z,12.45
2018-02-17T00:06:12.030Z,13.85
2018-02-17T00:08:38.300Z,14.05
2018-02-17T00:11:04.543Z,14.20
2018-02-17T00:13:33.010Z,13.45
2018-02-17T00:15:59.970Z,11.77
2018-02-17T00:18:27.022Z,13.80
2018-02-17T00:20:53.165Z,13.90
2018-02-17T00:23:19.429Z,12.90
2018-02-17T00:25:45.695Z,13.50
2018-02-17T00:28:12.018Z,13.00
2018-02-17T00:30:38.260Z,13.62
2018-02-17T00:33:04.611Z,13.48
2018-02-17T00:35:30.852Z,12.98
2018-02-17T00:37:57.098Z,12.07
2018-02-17T00:40:23.360Z,11.95
2018-02-17T00:42:49.608Z,11.02
2018-02-17T00:45:15.878Z,12.52
2018-02-17T00:47:42.108Z,12.80
2018-02-17T00:50:08.361Z,11.82
2018-02-17T00:52:34.629Z,10.93
2018-02-17T00:55:00.878Z,12.52
2018-02-17T00:57:27.141Z,11.12
2018-02-17T00:59:53.442Z,14.40
2018-02-17T01:02:19.698Z,12.40
2018-02-17T01:04:45.929Z,12.77
2018-02-17T01:07:12.169Z,13.05
2018-02-17T01:09:38.445Z,11.88
2018-02-17T01:12:04.690Z,12.32
2018-02-17T01:14:30.973Z,12.52
2018-02-17T01:16:57.237Z,11.93
2018-02-17T01:19:23.507Z,11.80
2018-02-17T01:21:49.778Z,11.55
2018-02-17T01:24:16.038Z,13.60
2018-02-17T01:26:42.304Z,11.18
2018-02-17T01:29:09.327Z,11.27
2018-02-17T01:31:35.566Z,12.00
2018-02-17T01:34:01.826Z,12.43
2018-02-17T01:36:28.067Z,12.30
2018-02-17T01:38:54.325Z,12.90
2018-02-17T01:41:20.494Z,12.60
2018-02-17T01:43:46.759Z,11.70
2018-02-17T01:46:13.841Z,14.38
2018-02-17T01:48:40.093Z,12.98
2018-02-17T01:51:06.335Z,12.88
2018-02-17T01:53:33.360Z,13.60
2018-02-17T01:55:59.615Z,13.02
2018-02-17T01:58:25.844Z,12.82
2018-02-17T02:00:52.080Z,12.45
2018-02-17T02:03:18.349Z,11.77
2018-02-17T02:05:44.597Z,12.23
2018-02-17T02:08:10.822Z,13.50
2018-02-17T02:10:37.198Z,12.05
2018-02-17T02:13:04.249Z,13.85
2018-02-17T02:15:30.584Z,12.35
2018-02-17T02:17:56.837Z,12.35
2018-02-17T02:20:23.106Z,13.70
2018-02-17T02:22:49.362Z,13.50
2018-02-17T02:25:15.629Z,13.32
2018-02-17T02:27:41.885Z,15.75
2018-02-17T02:30:08.122Z,15.32
2018-02-17T02:32:34.415Z,13.60
2018-02-17T02:35:00.638Z,15.07
2018-02-17T02:37:26.898Z,14.70
2018-02-17T02:39:53.162Z,15.88
2018-02-17T02:42:20.175Z,14.15
2018-02-17T02:44:46.438Z,13.93
2018-02-17T02:47:12.721Z,13.60
2018-02-17T02:49:38.987Z,14.40
2018-02-17T02:52:05.230Z,15.35
2018-02-17T02:54:31.529Z,17.92
2018-02-17T02:56:57.860Z,13.75
2018-02-17T02:59:24.072Z,15.18
2018-02-17T03:01:50.302Z,14.77
2018-02-17T03:04:16.588Z,14.27
2018-02-17T03:06:42.840Z,14.38
2018-02-17T03:09:09.108Z,13.73
2018-02-17T03:11:35.431Z,14.80
2018-02-17T03:14:02.380Z,13.70
2018-02-17T03:16:28.642Z,14.25
2018-02-17T03:18:56.489Z,13.25
2018-02-17T03:21:23.466Z,13.15
2018-02-17T03:23:49.712Z,15.63
2018-02-17T03:26:16.708Z,14.90
2018-02-17T03:28:42.948Z,14.02
2018-02-17T03:31:09.978Z,13.00
2018-02-17T03:33:36.325Z,13.55
2018-02-17T03:36:02.589Z,14.75
2018-02-17T03:38:28.841Z,14.40
2018-02-17T03:40:55.077Z,15.30
2018-02-17T03:43:22.111Z,13.80
2018-02-17T03:45:48.387Z,13.27
2018-02-17T03:48:14.635Z,13.60
2018-02-17T03:50:41.594Z,15.50
2018-02-17T03:53:08.594Z,15.90
2018-02-17T03:55:35.626Z,14.05
2018-02-17T03:58:01.894Z,14.73
2018-02-17T04:00:28.142Z,15.80
2018-02-17T04:02:54.430Z,14.20
2018-02-17T04:05:21.440Z,13.10
2018-02-17T04:07:47.703Z,15.93
2018-02-17T04:10:13.954Z,12.80
2018-02-17T04:12:40.204Z,14.52
2018-02-17T04:15:06.476Z,14.85
2018-02-17T04:17:32.734Z,13.98
2018-02-17T04:19:58.961Z,14.85
2018-02-17T04:22:25.233Z,15.00
2018-02-17T04:24:51.504Z,14.73
2018-02-17T04:27:17.905Z,15.85
2018-02-17T04:29:44.629Z,15.00
2018-02-17T04:32:10.879Z,14.75
2018-02-17T04:34:37.604Z,15.23
2018-02-17T04:37:03.865Z,15.13
2018-02-17T04:39:35.187Z,16.15
2018-02-17T04:42:03.328Z,15.32
2018-02-17T04:47:44.472Z,14.55
2018-02-17T04:53:30.434Z,14.43
2018-02-17T04:56:02.783Z,16.30
2018-02-17T05:01:34.484Z,14.38
2018-02-17T05:04:03.585Z,15.07
2018-02-17T05:06:34.773Z,15.73
2018-02-17T05:09:03.045Z,15.38
2018-02-17T05:11:29.326Z,15.55
2018-02-17T05:13:55.637Z,15.35
2018-02-17T05:16:24.756Z,16.90
2018-02-17T05:18:56.933Z,14.98
2018-02-17T05:21:29.185Z,12.98
2018-02-17T05:24:05.409Z,15.38
2018-02-17T05:26:32.385Z,14.50
2018-02-17T05:29:00.446Z,15.05
2018-02-17T05:31:27.601Z,14.50
2018-02-17T05:33:53.846Z,14.98
2018-02-17T05:36:20.140Z,15.93
2018-02-17T05:41:55.867Z,14.75
2018-02-17T05:44:37.818Z,15.10
2018-02-17T05:47:07.009Z,15.13
2018-02-17T05:49:35.251Z,14.75
2018-02-17T05:52:01.558Z,14.73
2018-02-17T05:54:27.834Z,15.70
2018-02-17T05:56:54.078Z,15.40
2018-02-17T05:59:20.308Z,13.80
2018-02-17T06:01:47.269Z,15.25
2018-02-17T06:04:13.525Z,16.62
2018-02-17T06:06:39.869Z,17.12
2018-02-17T06:09:06.100Z,14.68
2018-02-17T06:11:32.385Z,15.32
2018-02-17T06:13:58.662Z,17.55
2018-02-17T06:16:25.682Z,15.73
2018-02-17T06:18:51.939Z,16.55
2018-02-17T06:21:18.313Z,15.80
2018-02-17T06:23:45.316Z,17.65
2018-02-17T06:26:12.325Z,16.58
2018-02-17T06:28:38.586Z,16.60
2018-02-17T06:31:04.829Z,15.73
2018-02-17T06:33:31.123Z,15.65
2018-02-17T06:35:58.250Z,14.95
2018-02-17T06:38:25.243Z,16.55
2018-02-17T06:40:51.799Z,15.80
2018-02-17T06:43:18.112Z,16.17
2018-02-17T06:45:44.400Z,16.12
2018-02-17T06:48:10.681Z,16.48
2018-02-17T06:50:36.953Z,18.08
2018-02-17T06:53:03.933Z,18.20
2018-02-17T06:55:30.912Z,17.70
2018-02-17T06:57:57.152Z,16.30
2018-02-17T07:00:23.410Z,17.30
2018-02-17T07:02:49.657Z,16.35
2018-02-17T07:05:15.914Z,17.17
2018-02-17T07:07:42.190Z,18.05
2018-02-17T07:10:09.210Z,17.98
2018-02-17T07:12:35.474Z,17.75
2018-02-17T07:15:01.747Z,18.17
2018-02-17T07:17:27.975Z,17.12
2018-02-17T07:19:54.245Z,17.87
2018-02-17T07:22:20.491Z,19.27
2018-02-17T07:24:46.760Z,17.27
2018-02-17T07:27:13.752Z,17.23
2018-02-17T07:29:39.997Z,18.02
2018-02-17T07:32:06.253Z,17.60
2018-02-17T07:34:32.502Z,17.75
2018-02-17T07:36:59.501Z,17.27
2018-02-17T07:39:25.753Z,18.05
2018-02-17T07:41:52.846Z,18.05
2018-02-17T07:44:19.825Z,17.40
2018-02-17T07:46:46.078Z,17.75
2018-02-17T07:49:12.352Z,19.25
2018-02-17T07:51:39.383Z,16.60
2018-02-17T07:54:05.608Z,17.27
2018-02-17T07:56:31.821Z,17.50
2018-02-17T07:58:58.105Z,18.20
2018-02-17T08:01:24.341Z,18.12
2018-02-17T08:03:50.590Z,18.05
2018-02-17T08:06:16.894Z,18.00
2018-02-17T08:08:43.257Z,19.60
2018-02-17T08:11:09.521Z,17.40
2018-02-17T08:13:35.754Z,19.10
2018-02-17T08:16:02.003Z,18.60
2018-02-17T08:18:29.036Z,18.08
2018-02-17T08:20:55.270Z,18.17
2018-02-17T08:23:21.511Z,16.58
2018-02-17T08:25:48.752Z,18.08
2018-02-17T08:28:15.026Z,17.58
2018-02-17T08:30:41.305Z,19.27
2018-02-17T08:33:07.581Z,17.95
2018-02-17T08:35:33.853Z,18.37
2018-02-17T08:38:00.165Z,16.55
2018-02-17T08:40:27.218Z,16.62
2018-02-17T08:42:53.501Z,18.70
2018-02-17T08:45:20.095Z,17.10
2018-02-17T08:47:47.094Z,16.92
2018-02-17T08:50:13.341Z,19.67
2018-02-17T08:52:39.615Z,17.48
2018-02-17T08:55:06.863Z,18.15
2018-02-17T08:57:33.154Z,18.85
2018-02-17T08:59:59.474Z,18.02
2018-02-17T09:02:26.925Z,18.50
2018-02-17T09:04:53.193Z,19.02
2018-02-17T09:07:19.486Z,16.90
2018-02-17T09:09:45.773Z,16.45
2018-02-17T09:12:12.814Z,18.55
2018-02-17T09:14:39.054Z,16.35
2018-02-17T09:17:05.330Z,19.40
2018-02-17T09:19:31.577Z,18.35
2018-02-17T09:21:57.849Z,17.83
2018-02-17T09:24:24.224Z,19.05
2018-02-17T09:26:50.544Z,17.45
2018-02-17T09:29:16.815Z,18.27
2018-02-17T09:31:43.072Z,17.80
2018-02-17T09:34:10.261Z,18.85
2018-02-17T09:36:36.520Z,18.95
2018-02-17T09:39:02.833Z,18.75
2018-02-17T09:41:29.123Z,20.00
2018-02-17T09:43:55.423Z,19.25
2018-02-17T09:46:21.706Z,20.27
2018-02-17T09:48:48.047Z,20.70
2018-02-17T09:51:14.370Z,20.23
2018-02-17T09:53:40.713Z,19.67
2018-02-17T09:56:07.053Z,20.62
2018-02-17T09:58:33.242Z,19.33
2018-02-17T10:01:00.121Z,23.42
2018-02-17T10:03:26.219Z,19.30
2018-02-17T10:05:52.281Z,21.08
2018-02-17T10:08:18.347Z,18.40
2018-02-17T10:10:45.146Z,20.00
2018-02-17T10:13:11.404Z,19.55
2018-02-17T10:15:37.477Z,18.77
2018-02-17T10:18:03.553Z,20.90
2018-02-17T10:20:29.779Z,19.65
2018-02-17T10:22:55.858Z,21.23
2018-02-17T10:25:21.998Z,20.62
2018-02-17T10:27:48.074Z,20.60
2018-02-17T10:30:17.017Z,19.85
2018-02-17T10:32:43.850Z,20.67
2018-02-17T10:35:09.917Z,22.02
2018-02-17T10:37:36.076Z,23.25
2018-02-17T10:40:02.157Z,21.48
2018-02-17T10:42:28.213Z,23.95
2018-02-17T10:44:55.014Z,23.62
2018-02-17T10:47:21.130Z,24.20
2018-02-17T10:49:47.174Z,26.45
2018-02-17T10:52:13.231Z,26.05
2018-02-17T10:54:39.349Z,25.30
2018-02-17T10:57:05.402Z,24.65
2018-02-17T10:59:31.458Z,25.20
2018-02-17T11:01:57.597Z,24.95
2018-02-17T11:04:23.655Z,22.50
2018-02-17T11:06:49.762Z,24.63
2018-02-17T11:09:15.830Z,23.80
2018-02-17T11:11:41.910Z,23.27
2018-02-17T11:14:07.966Z,25.77
2018-02-17T11:16:34.029Z,25.30
2018-02-17T11:19:00.110Z,24.67
2018-02-17T11:21:26.194Z,25.48
2018-02-17T11:23:52.289Z,25.40
2018-02-17T11:26:18.374Z,25.77
2018-02-17T11:28:44.430Z,25.42
2018-02-17T11:31:10.483Z,27.80
2018-02-17T11:33:36.672Z,26.05
2018-02-17T11:36:02.786Z,25.12
2018-02-17T11:38:29.068Z,25.42
2018-02-17T11:40:55.443Z,26.90
2018-02-17T11:43:23.546Z,26.20
2018-02-17T11:45:51.902Z,27.42
2018-02-17T11:48:18.886Z,25.10
2018-02-17T11:50:45.141Z,25.83
2018-02-17T11:53:11.409Z,23.75
2018-02-17T11:55:37.669Z,24.75
2018-02-17T11:58:03.993Z,24.05
2018-02-17T12:00:30.229Z,25.30
2018-02-17T12:02:57.570Z,22.67
2018-02-17T12:05:23.817Z,22.92
2018-02-17T12:07:50.925Z,25.15
2018-02-17T12:10:17.181Z,26.08
2018-02-17T12:12:44.204Z,25.52
2018-02-17T12:15:10.515Z,27.62
2018-02-17T12:17:36.778Z,25.75
2018-02-17T12:20:03.042Z,24.85
2018-02-17T12:22:30.775Z,25.60
2018-02-17T12:24:57.022Z,24.60
2018-02-17T12:27:23.257Z,22.70
2018-02-17T12:29:50.374Z,21.75
2018-02-17T12:32:16.641Z,21.80
2018-02-17T12:34:43.653Z,22.30
2018-02-17T12:37:09.911Z,23.55
2018-02-17T12:39:36.145Z,23.30
2018-02-17T12:42:02.413Z,24.75
2018-02-17T12:44:28.784Z,25.15
2018-02-17T12:46:55.060Z,21.62
2018-02-17T12:49:23.711Z,22.80
2018-02-17T12:51:49.958Z,22.98
2018-02-17T12:54:16.230Z,23.30
2018-02-17T12:56:42.505Z,20.80
2018-02-17T12:59:08.753Z,18.58
2018-02-17T13:01:34.817Z,20.52
2018-02-17T13:04:02.778Z,16.75
2018-02-17T13:06:28.840Z,18.27
2018-02-17T13:08:54.921Z,17.55
2018-02-17T13:11:21.023Z,18.12
2018-02-17T13:13:47.821Z,17.93
2018-02-17T13:16:13.885Z,18.27
2018-02-17T13:18:40.805Z,16.10
2018-02-17T13:21:06.885Z,15.10
2018-02-17T13:23:32.951Z,14.60
2018-02-17T13:25:59.028Z,13.77
2018-02-17T13:28:25.122Z,13.63
2018-02-17T13:30:52.734Z,14.90
2018-02-17T13:33:19.737Z,15.65
2018-02-17T13:35:47.178Z,15.10
2018-02-17T13:38:13.489Z,15.27
2018-02-17T13:40:39.835Z,14.02
2018-02-17T13:43:06.933Z,15.60
2018-02-17T13:45:33.924Z,15.80
2018-02-17T13:48:00.216Z,17.70
2018-02-17T13:50:28.326Z,17.20
2018-02-17T13:52:54.659Z,16.48
2018-02-17T13:55:20.878Z,15.73
2018-02-17T13:57:47.206Z,15.68
2018-02-17T14:00:14.396Z,17.08
2018-02-17T14:02:40.481Z,15.35
2018-02-17T14:05:07.302Z,13.38
2018-02-17T14:07:35.466Z,12.75
2018-02-17T14:10:02.108Z,15.02
2018-02-17T14:12:28.181Z,16.33
2018-02-17T14:14:55.447Z,13.38
2018-02-17T14:17:21.530Z,12.75
2018-02-17T14:19:47.590Z,13.68
2018-02-17T14:22:17.178Z,13.00
2018-02-17T14:24:43.997Z,12.37
2018-02-17T14:27:11.158Z,13.57
2018-02-17T14:29:38.181Z,14.80
2018-02-17T14:32:04.514Z,14.63
2018-02-17T14:34:30.789Z,13.70
2018-02-17T14:36:57.705Z,14.13
2018-02-17T14:39:28.655Z,13.77
2018-02-17T14:41:54.937Z,13.85
2018-02-17T14:44:21.195Z,10.85
2018-02-17T14:49:46.249Z,12.25
2018-02-17T14:52:12.506Z,15.00
2018-02-17T14:54:38.736Z,14.52
2018-02-17T14:57:08.200Z,13.90
2018-02-17T14:59:34.409Z,14.40
2018-02-17T15:02:00.629Z,15.02
2018-02-17T15:04:26.865Z,14.90
2018-02-17T15:06:53.277Z,14.63
2018-02-17T15:09:19.546Z,13.75
2018-02-17T15:11:46.533Z,13.10
2018-02-17T15:14:12.936Z,14.38
2018-02-17T15:16:39.941Z,14.95
2018-02-17T15:19:06.196Z,13.40
2018-02-17T15:21:33.070Z,14.05
2018-02-17T15:23:59.287Z,15.07
2018-02-17T15:26:26.664Z,13.50
2018-02-17T15:28:53.034Z,14.68
2018-02-17T15:31:19.324Z,14.07
2018-02-17T15:33:45.569Z,15.35
2018-02-17T15:36:11.830Z,25.52
2018-02-17T15:38:37.888Z,22.95
2018-02-17T15:41:04.024Z,40.03
2018-02-17T15:43:31.458Z,15.35
2018-02-17T15:45:58.374Z,15.23
2018-02-17T15:48:24.424Z,14.63
2018-02-17T15:50:50.468Z,15.43
2018-02-17T15:53:16.513Z,15.65
2018-02-17T15:55:42.551Z,16.23
2018-02-17T15:58:08.594Z,16.73
2018-02-17T16:00:34.663Z,15.63
2018-02-17T16:03:00.896Z,18.95
2018-02-17T16:05:28.069Z,16.83
2018-02-17T16:07:54.337Z,19.00
2018-02-17T16:12:52.129Z,18.20
2018-02-17T16:15:19.093Z,17.27
2018-02-17T16:17:45.141Z,29.50
2018-02-17T16:20:11.221Z,27.45
2018-02-17T16:22:37.272Z,19.08
2018-02-17T16:25:04.081Z,23.48
2018-02-17T16:27:31.602Z,34.65
2018-02-17T16:29:58.023Z,32.65
2018-02-17T16:32:24.305Z,23.48
2018-02-17T16:34:51.327Z,55.95
2018-02-17T16:37:17.565Z,32.95
2018-02-17T16:39:44.509Z,36.72
2018-02-17T16:42:11.473Z,20.58
2018-02-17T16:44:37.866Z,19.60
2018-02-17T16:47:04.700Z,18.15
2018-02-17T16:49:30.937Z,18.65
2018-02-17T16:51:57.303Z,18.65
2018-02-17T16:54:25.373Z,17.42
2018-02-17T16:56:52.390Z,16.92
2018-02-17T16:59:18.652Z,16.62
2018-02-17T17:01:44.950Z,17.85
2018-02-17T17:04:11.109Z,18.15
2018-02-17T17:06:38.702Z,17.17
2018-02-17T17:09:06.410Z,18.00
2018-02-17T17:11:32.911Z,17.17
2018-02-17T17:13:59.213Z,18.48
2018-02-17T17:16:41.974Z,17.77
2018-02-17T17:19:08.221Z,19.35
2018-02-17T17:21:34.517Z,20.30
2018-02-17T17:24:00.973Z,19.80
2018-02-17T17:26:27.237Z,19.73
2018-02-17T17:28:54.217Z,22.15
2018-02-17T17:31:20.457Z,21.73
2018-02-17T17:33:46.508Z,20.98
2018-02-17T17:41:38.679Z,20.35
2018-02-17T17:44:08.135Z,26.20
2018-02-17T17:46:34.397Z,21.00
2018-02-17T17:49:00.661Z,23.80
2018-02-17T17:51:27.646Z,20.42
2018-02-17T17:53:53.923Z,20.62
2018-02-17T17:56:20.347Z,20.45
2018-02-17T17:58:46.601Z,21.17
2018-02-17T18:01:13.619Z,21.40
2018-02-17T18:03:40.378Z,21.40
2018-02-17T18:06:06.669Z,20.73
2018-02-17T18:08:33.069Z,21.70
2018-02-17T18:11:01.168Z,21.00
2018-02-17T18:13:28.169Z,19.02
2018-02-17T18:15:54.409Z,25.12
2018-02-17T18:18:21.823Z,21.40
2018-02-17T18:20:49.053Z,21.35
2018-02-17T18:23:15.302Z,20.80
2018-02-17T18:25:41.353Z,20.40
2018-02-17T18:28:07.400Z,21.50
2018-02-17T18:30:33.630Z,20.60
2018-02-17T18:32:59.696Z,22.15
2018-02-17T18:35:25.786Z,21.85
2018-02-17T18:37:51.813Z,19.55
2018-02-17T18:40:17.885Z,21.00
2018-02-17T18:42:44.684Z,19.08
2018-02-17T18:45:10.729Z,19.05
2018-02-17T18:47:36.850Z,20.67
2018-02-17T18:50:02.933Z,22.40
2018-02-17T18:52:28.984Z,24.30
2018-02-17T18:54:55.238Z,24.67
2018-02-17T18:57:21.504Z,25.20
2018-02-17T18:59:47.755Z,22.85
2018-02-17T19:02:14.147Z,21.87
2018-02-17T19:04:41.121Z,23.08
2018-02-17T19:07:07.478Z,22.48
2018-02-17T19:09:33.765Z,22.40
2018-02-17T19:12:00.075Z,22.70
2018-02-17T19:14:26.412Z,23.75
2018-02-17T19:16:52.678Z,23.60
2018-02-17T19:19:18.905Z,23.42
2018-02-17T19:21:45.146Z,23.40
2018-02-17T19:24:11.366Z,23.23
2018-02-17T19:26:38.731Z,25.35
2018-02-17T19:29:05.748Z,23.30
2018-02-17T19:31:31.994Z,24.73
2018-02-17T19:33:58.285Z,24.08
2018-02-17T19:36:24.534Z,26.75
2018-02-17T19:38:50.792Z,25.65
2018-02-17T19:41:17.041Z,24.58
2018-02-17T19:43:43.335Z,24.27
2018-02-17T19:46:09.571Z,23.85
2018-02-17T19:48:35.911Z,24.20
2018-02-17T19:51:02.102Z,23.35
2018-02-17T19:53:28.373Z,23.70
2018-02-17T19:55:54.661Z,23.25
2018-02-17T19:58:20.937Z,24.90
2018-02-17T20:00:47.982Z,22.13
2018-02-17T20:03:14.308Z,21.95
2018-02-17T20:05:40.626Z,23.12
2018-02-17T20:08:06.994Z,24.55
2018-02-17T20:10:33.326Z,24.20
2018-02-17T20:13:00.305Z,25.65
2018-02-17T20:15:26.678Z,24.85
2018-02-17T20:17:52.896Z,25.40
2018-02-17T20:20:19.155Z,26.05
2018-02-17T20:22:46.109Z,23.65
2018-02-17T20:25:12.376Z,23.38
2018-02-17T20:30:37.137Z,23.50
2018-02-17T20:33:03.343Z,25.90
2018-02-17T20:35:29.571Z,24.17
2018-02-17T20:37:55.845Z,21.95
2018-02-17T20:40:22.048Z,24.70
2018-02-17T20:42:49.016Z,24.00
2018-02-17T20:45:15.279Z,22.35
2018-02-17T20:47:41.523Z,23.30
2018-02-17T20:50:07.751Z,23.65
2018-02-17T20:52:33.978Z,24.00
2018-02-17T20:55:00.222Z,25.80
2018-02-17T20:57:26.438Z,24.52
2018-02-17T20:59:52.681Z,26.08
2018-02-17T21:02:18.942Z,23.75
2018-02-17T21:04:45.240Z,22.90
2018-02-17T21:07:11.482Z,25.33
2018-02-17T21:09:38.962Z,23.73
2018-02-17T21:12:05.942Z,21.42
2018-02-17T21:14:32.180Z,23.20
2018-02-17T21:16:58.458Z,23.30
2018-02-17T21:19:24.671Z,24.10
2018-02-17T21:21:50.881Z,22.00
2018-02-17T21:24:17.115Z,24.00
2018-02-17T21:26:43.392Z,21.52
2018-02-17T21:29:09.618Z,23.98
2018-02-17T21:31:36.583Z,22.90
2018-02-17T21:34:02.819Z,21.23
2018-02-17T21:36:29.085Z,24.10
2018-02-17T21:38:56.078Z,23.08
2018-02-17T21:41:22.376Z,23.55
2018-02-17T21:43:48.633Z,23.17
2018-02-17T21:46:15.662Z,24.77
2018-02-17T21:48:41.934Z,21.42
2018-02-17T21:51:08.197Z,23.80
2018-02-17T21:53:34.435Z,23.83
2018-02-17T21:56:01.461Z,22.77
2018-02-17T21:58:27.821Z,23.58
2018-02-17T22:00:54.051Z,23.77
2018-02-17T22:03:20.290Z,24.40
2018-02-17T22:05:47.290Z,24.60
2018-02-17T22:08:13.529Z,21.73
2018-02-17T22:10:39.774Z,22.87
2018-02-17T22:13:06.026Z,24.20
2018-02-17T22:15:33.115Z,23.33
2018-02-17T22:17:59.354Z,23.35
2018-02-17T22:20:26.379Z,24.60
2018-02-17T22:22:52.608Z,21.58
2018-02-17T22:25:18.910Z,23.38
2018-02-17T22:27:46.713Z,23.48
2018-02-17T22:30:12.949Z,22.17
2018-02-17T22:32:39.223Z,24.80
2018-02-17T22:35:05.498Z,21.85
2018-02-17T22:37:31.767Z,21.83
2018-02-17T22:39:58.001Z,21.98
2018-02-17T22:42:24.233Z,21.20
2018-02-17T22:44:50.557Z,22.05
2018-02-17T22:47:16.813Z,23.05
2018-02-17T22:49:45.853Z,22.40
2018-02-17T22:52:12.094Z,22.65
2018-02-17T22:54:38.349Z,21.45
2018-02-17T22:57:04.573Z,21.62
2018-02-17T22:59:30.807Z,21.50
2018-02-17T23:01:57.042Z,22.73
2018-02-17T23:04:23.275Z,21.70
2018-02-17T23:06:49.521Z,19.98
2018-02-17T23:09:16.513Z,20.73
2018-02-17T23:11:42.741Z,22.80
2018-02-17T23:14:08.969Z,21.48
2018-02-17T23:16:35.200Z,22.30
2018-02-17T23:19:01.426Z,20.60
2018-02-17T23:21:27.678Z,21.67
2018-02-17T23:23:53.894Z,21.98
2018-02-17T23:26:20.133Z,21.77
2018-02-17T23:28:46.493Z,22.10
2018-02-17T23:31:12.722Z,23.25
2018-02-17T23:33:38.970Z,23.65
2018-02-17T23:36:05.194Z,20.42
2018-02-17T23:38:32.170Z,22.77
2018-02-17T23:40:58.386Z,23.00
2018-02-17T23:43:24.619Z,23.83
2018-02-17T23:45:50.933Z,24.10
2018-02-17T23:48:18.510Z,25.08
2018-02-17T23:50:44.729Z,24.77
2018-02-17T23:53:10.938Z,24.92
2018-02-17T23:55:37.242Z,28.75
2018-02-17T23:58:03.463Z,29.77
